createdAt,value
2023-04-29T00:00:43.963Z,14.80
2023-04-29T00:03:10.816Z,14.80
2023-04-29T00:05:37.839Z,14.80
2023-04-29T00:08:04.881Z,14.80
2023-04-29T00:10:31.600Z,14.80
2023-04-29T00:12:58.226Z,14.80
2023-04-29T00:15:24.912Z,14.80
2023-04-29T00:17:51.554Z,14.80
2023-04-29T00:20:18.725Z,14.80
2023-04-29T00:22:45.400Z,14.80
2023-04-29T00:25:12.298Z,14.80
2023-04-29T00:27:39.478Z,14.70
2023-04-29T00:30:08.261Z,14.70
2023-04-29T00:32:34.971Z,14.70
2023-04-29T00:35:02.316Z,14.70
2023-04-29T00:37:28.916Z,14.70
2023-04-29T00:39:55.536Z,14.70
2023-04-29T00:42:22.469Z,14.70
2023-04-29T00:44:49.088Z,14.70
2023-04-29T00:47:15.722Z,14.70
2023-04-29T00:49:42.374Z,14.70
2023-04-29T00:52:11.632Z,14.70
2023-04-29T00:54:39.154Z,14.70
2023-04-29T00:57:06.372Z,14.70
2023-04-29T00:59:34.509Z,14.70
2023-04-29T01:02:02.997Z,14.60
2023-04-29T01:04:30.620Z,14.60
2023-04-29T01:07:10.075Z,14.60
2023-04-29T01:09:57.895Z,14.60
2023-04-29T01:12:30.416Z,14.60
2023-04-29T01:15:19.792Z,14.60
2023-04-29T01:18:00.338Z,14.60
2023-04-29T01:20:28.252Z,14.60
2023-04-29T01:22:55.142Z,14.50
2023-04-29T01:25:21.776Z,14.50
2023-04-29T01:28:21.041Z,14.50
2023-04-29T01:30:59.727Z,14.50
2023-04-29T01:33:48.303Z,14.50
2023-04-29T01:36:22.686Z,14.50
2023-04-29T01:39:25.877Z,14.50
2023-04-29T01:42:15.168Z,14.40
2023-04-29T01:44:43.717Z,14.40
2023-04-29T01:47:13.996Z,14.40
2023-04-29T01:49:40.875Z,14.40
2023-04-29T01:52:07.676Z,14.40
2023-04-29T01:54:37.132Z,14.40
2023-04-29T01:57:04.347Z,14.40
2023-04-29T01:59:31.697Z,14.30
2023-04-29T02:01:58.981Z,14.30
2023-04-29T02:04:26.340Z,14.30
2023-04-29T02:06:52.980Z,14.30
2023-04-29T02:09:19.688Z,14.30
2023-04-29T02:11:46.366Z,14.30
2023-04-29T02:14:13.004Z,14.30
2023-04-29T02:16:39.736Z,14.30
2023-04-29T02:19:06.375Z,14.30
2023-04-29T02:21:35.012Z,14.30
2023-04-29T02:24:01.635Z,14.30
2023-04-29T02:26:28.389Z,14.30
2023-04-29T02:28:57.136Z,14.30
2023-04-29T02:31:23.904Z,14.30
2023-04-29T02:33:50.675Z,14.30
2023-04-29T02:36:18.275Z,14.30
2023-04-29T02:38:44.883Z,14.30
2023-04-29T02:41:17.043Z,14.30
2023-04-29T02:43:44.844Z,14.20
2023-04-29T02:46:11.813Z,14.20
2023-04-29T02:48:38.512Z,14.20
2023-04-29T02:51:05.208Z,14.20
2023-04-29T02:53:31.832Z,14.20
2023-04-29T02:55:58.499Z,14.20
2023-04-29T02:58:25.882Z,14.20
2023-04-29T03:00:52.627Z,14.20
2023-04-29T03:03:19.446Z,14.20
2023-04-29T03:05:46.204Z,14.10
2023-04-29T03:08:12.795Z,14.10
2023-04-29T03:10:41.477Z,14.10
2023-04-29T03:13:08.469Z,14.10
2023-04-29T03:15:35.416Z,14.10
2023-04-29T03:18:04.047Z,14.00
2023-04-29T03:20:31.065Z,14.00
2023-04-29T03:22:57.798Z,14.00
2023-04-29T03:25:24.580Z,14.00
2023-04-29T03:27:51.545Z,13.90
2023-04-29T03:30:18.232Z,13.90
2023-04-29T03:32:44.892Z,13.90
2023-04-29T03:35:14.082Z,13.90
2023-04-29T03:37:44.308Z,13.80
2023-04-29T03:40:12.018Z,13.80
2023-04-29T03:42:38.647Z,13.80
2023-04-29T03:45:06.365Z,13.80
2023-04-29T03:47:33.070Z,13.80
2023-04-29T03:49:59.770Z,13.70
2023-04-29T03:52:26.436Z,13.70
2023-04-29T03:54:53.055Z,13.60
2023-04-29T03:57:19.657Z,13.70
2023-04-29T03:59:50.380Z,13.60
2023-04-29T04:02:17.293Z,13.60
2023-04-29T04:04:44.323Z,13.50
2023-04-29T04:07:11.624Z,13.50
2023-04-29T04:09:38.738Z,13.40
2023-04-29T04:12:06.708Z,13.40
2023-04-29T04:14:33.529Z,13.40
2023-04-29T04:17:00.641Z,13.40
2023-04-29T04:19:29.073Z,13.30
2023-04-29T04:21:55.807Z,13.30
2023-04-29T04:24:23.120Z,13.30
2023-04-29T04:26:49.888Z,13.30
2023-04-29T04:29:16.540Z,13.30
2023-04-29T04:31:45.497Z,13.20
2023-04-29T04:34:13.391Z,13.20
2023-04-29T04:36:40.070Z,13.20
2023-04-29T04:39:06.757Z,13.20
2023-04-29T04:41:33.448Z,13.20
2023-04-29T04:44:00.043Z,13.10
2023-04-29T04:46:26.674Z,13.20
2023-04-29T04:48:53.259Z,13.20
2023-04-29T04:51:21.115Z,13.10
2023-04-29T04:53:47.728Z,13.10
2023-04-29T04:56:14.370Z,13.20
2023-04-29T04:58:40.960Z,13.20
2023-04-29T05:01:07.956Z,13.20
2023-04-29T05:03:34.804Z,13.20
2023-04-29T05:06:01.549Z,13.30
2023-04-29T05:08:28.381Z,13.40
2023-04-29T05:10:55.011Z,13.40
2023-04-29T05:13:21.822Z,13.50
2023-04-29T05:15:48.414Z,13.50
2023-04-29T05:18:15.006Z,13.50
2023-04-29T05:20:41.624Z,13.60
2023-04-29T05:23:08.890Z,13.60
2023-04-29T05:25:35.815Z,13.60
2023-04-29T05:28:04.199Z,13.60
2023-04-29T05:30:30.832Z,13.70
2023-04-29T05:32:57.560Z,13.60
2023-04-29T05:35:24.273Z,13.60
2023-04-29T05:37:51.167Z,13.60
2023-04-29T05:40:17.938Z,13.60
2023-04-29T05:42:44.604Z,13.50
2023-04-29T05:45:12.397Z,13.50
2023-04-29T05:47:39.100Z,13.40
2023-04-29T05:50:06.501Z,13.40
2023-04-29T05:52:33.248Z,13.40
2023-04-29T05:54:59.847Z,13.50
2023-04-29T05:57:26.452Z,13.50
2023-04-29T05:59:55.187Z,13.50
2023-04-29T06:02:22.523Z,13.60
2023-04-29T06:04:49.582Z,13.70
2023-04-29T06:07:19.541Z,13.70
2023-04-29T06:09:46.927Z,13.70
2023-04-29T06:12:13.590Z,13.80
2023-04-29T06:14:40.414Z,13.80
2023-04-29T06:17:07.002Z,13.90
2023-04-29T06:19:34.117Z,14.00
2023-04-29T06:22:00.855Z,14.10
2023-04-29T06:24:27.522Z,14.20
2023-04-29T06:26:54.189Z,14.30
2023-04-29T06:29:20.824Z,14.40
2023-04-29T06:31:47.519Z,14.50
2023-04-29T06:34:14.239Z,14.50
2023-04-29T06:36:41.604Z,14.50
2023-04-29T06:39:08.279Z,14.50
2023-04-29T06:41:35.011Z,14.50
2023-04-29T06:44:01.687Z,14.40
2023-04-29T06:46:29.175Z,14.40
2023-04-29T06:48:55.891Z,14.40
2023-04-29T06:51:22.550Z,14.40
2023-04-29T06:53:49.318Z,14.40
2023-04-29T06:56:17.175Z,14.40
2023-04-29T06:58:43.914Z,14.40
2023-04-29T07:01:11.028Z,14.40
2023-04-29T07:03:38.337Z,14.40
2023-04-29T07:06:05.135Z,14.40
2023-04-29T07:08:32.256Z,14.40
2023-04-29T07:10:59.011Z,14.40
2023-04-29T07:13:26.146Z,14.50
2023-04-29T07:15:53.037Z,14.50
2023-04-29T07:18:19.809Z,14.50
2023-04-29T07:20:47.932Z,14.60
2023-04-29T07:23:15.099Z,14.70
2023-04-29T07:25:41.923Z,14.80
2023-04-29T07:28:09.139Z,14.90
2023-04-29T07:30:36.339Z,15.00
2023-04-29T07:33:04.288Z,15.10
2023-04-29T07:35:31.510Z,15.30
2023-04-29T07:37:58.199Z,15.50
2023-04-29T07:40:24.806Z,15.60
2023-04-29T07:42:51.454Z,15.60
2023-04-29T07:45:18.156Z,15.70
2023-04-29T07:47:45.642Z,15.60
2023-04-29T07:50:12.582Z,15.70
2023-04-29T07:52:39.205Z,15.70
2023-04-29T07:55:06.209Z,15.70
2023-04-29T07:57:32.881Z,15.80
2023-04-29T07:59:59.681Z,15.70
2023-04-29T08:02:26.447Z,15.70
2023-04-29T08:04:54.930Z,15.70
2023-04-29T08:07:21.920Z,15.70
2023-04-29T08:09:48.546Z,15.60
2023-04-29T08:12:15.166Z,15.60
2023-04-29T08:14:41.837Z,15.60
2023-04-29T08:17:08.663Z,15.60
2023-04-29T08:19:35.797Z,15.60
2023-04-29T08:22:04.131Z,15.60
2023-04-29T08:24:31.020Z,15.60
2023-04-29T08:26:58.826Z,15.50
2023-04-29T08:29:25.468Z,15.50
2023-04-29T08:31:52.292Z,15.50
2023-04-29T08:34:19.010Z,15.60
2023-04-29T08:36:45.668Z,15.50
2023-04-29T08:39:12.408Z,15.60
2023-04-29T08:41:39.383Z,15.60
2023-04-29T08:44:06.346Z,15.60
2023-04-29T08:46:33.090Z,15.70
2023-04-29T08:49:01.842Z,15.80
2023-04-29T08:51:28.885Z,15.80
2023-04-29T08:53:56.675Z,15.80
2023-04-29T08:56:23.313Z,15.90
2023-04-29T08:58:58.918Z,16.00
2023-04-29T09:01:28.880Z,16.00
2023-04-29T09:04:29.361Z,16.00
2023-04-29T09:06:57.800Z,16.00
2023-04-29T09:09:25.109Z,16.10
2023-04-29T09:11:52.149Z,16.10
2023-04-29T09:14:20.106Z,16.20
2023-04-29T09:16:47.717Z,16.20
2023-04-29T09:19:33.286Z,16.20
2023-04-29T09:22:01.243Z,16.10
2023-04-29T09:24:29.636Z,16.20
2023-04-29T09:26:57.292Z,16.20
2023-04-29T09:29:24.141Z,16.30
2023-04-29T09:31:53.552Z,16.30
2023-04-29T09:34:36.006Z,16.20
2023-04-29T09:37:02.599Z,16.30
2023-04-29T09:39:38.980Z,16.30
2023-04-29T09:42:06.223Z,16.40
2023-04-29T09:44:37.867Z,16.40
2023-04-29T09:47:09.003Z,16.40
2023-04-29T09:49:38.319Z,16.50
2023-04-29T09:52:06.568Z,16.50
2023-04-29T09:54:36.260Z,16.50
2023-04-29T09:57:05.996Z,16.50
2023-04-29T09:59:37.620Z,16.60
2023-04-29T10:02:15.181Z,16.50
2023-04-29T10:04:44.527Z,16.50
2023-04-29T10:07:15.765Z,16.60
2023-04-29T10:09:44.050Z,16.50
2023-04-29T10:12:11.088Z,16.60
2023-04-29T10:14:44.642Z,16.60
2023-04-29T10:17:18.561Z,16.70
2023-04-29T10:20:07.426Z,16.80
2023-04-29T10:22:42.976Z,16.80
2023-04-29T10:25:11.740Z,16.80
2023-04-29T10:27:39.722Z,16.90
2023-04-29T10:30:09.571Z,17.00
2023-04-29T10:32:50.589Z,17.00
2023-04-29T10:35:20.289Z,17.00
2023-04-29T10:37:51.301Z,17.10
2023-04-29T10:40:40.173Z,17.10
2023-04-29T10:43:06.951Z,17.10
2023-04-29T10:45:36.720Z,17.10
2023-04-29T10:48:05.774Z,17.10
2023-04-29T10:50:47.493Z,17.00
2023-04-29T10:53:23.573Z,17.10
2023-04-29T10:56:05.881Z,17.10
2023-04-29T10:58:46.005Z,17.10
2023-04-29T11:01:15.107Z,17.10
2023-04-29T11:03:55.038Z,17.20
2023-04-29T11:06:35.818Z,17.20
2023-04-29T11:09:04.155Z,17.30
2023-04-29T11:11:43.525Z,17.30
2023-04-29T11:14:12.420Z,17.30
2023-04-29T11:16:47.205Z,17.40
2023-04-29T11:19:16.178Z,17.40
2023-04-29T11:21:44.452Z,17.40
2023-04-29T11:24:12.740Z,17.40
2023-04-29T11:26:39.374Z,17.50
2023-04-29T11:29:10.431Z,17.50
2023-04-29T11:31:39.138Z,17.50
2023-04-29T11:34:07.359Z,17.50
2023-04-29T11:36:34.838Z,17.60
2023-04-29T11:39:03.724Z,17.70
2023-04-29T11:41:31.564Z,17.70
2023-04-29T11:43:59.587Z,17.70
2023-04-29T11:46:28.935Z,17.80
2023-04-29T11:48:58.069Z,17.80
2023-04-29T11:51:24.959Z,17.80
2023-04-29T11:53:51.731Z,17.80
2023-04-29T11:56:22.923Z,17.80
2023-04-29T11:58:49.792Z,17.80
2023-04-29T12:01:16.547Z,17.80
2023-04-29T12:03:44.331Z,17.90
2023-04-29T12:06:13.555Z,17.90
2023-04-29T12:08:40.238Z,17.90
2023-04-29T12:11:07.713Z,17.90
2023-04-29T12:13:37.680Z,17.90
2023-04-29T12:16:05.834Z,17.90
2023-04-29T12:18:32.776Z,18.00
2023-04-29T12:20:59.506Z,18.00
2023-04-29T12:23:27.320Z,18.00
2023-04-29T12:25:56.902Z,18.10
2023-04-29T12:28:24.166Z,18.10
2023-04-29T12:30:54.220Z,18.10
2023-04-29T12:33:28.667Z,18.10
2023-04-29T12:35:58.314Z,18.10
2023-04-29T12:38:29.543Z,18.20
2023-04-29T12:40:58.920Z,18.20
2023-04-29T12:43:29.790Z,18.30
2023-04-29T12:46:10.185Z,18.40
2023-04-29T12:48:43.899Z,18.50
2023-04-29T12:51:11.653Z,18.60
2023-04-29T12:53:39.046Z,18.60
2023-04-29T12:56:06.646Z,18.70
2023-04-29T12:58:34.804Z,18.80
2023-04-29T13:01:01.694Z,18.90
2023-04-29T13:03:28.955Z,19.00
2023-04-29T13:05:55.950Z,18.90
2023-04-29T13:08:22.992Z,18.90
2023-04-29T13:10:49.842Z,18.90
2023-04-29T13:13:16.642Z,19.00
2023-04-29T13:15:43.273Z,19.00
2023-04-29T13:18:09.900Z,19.00
2023-04-29T13:20:41.473Z,18.90
2023-04-29T13:23:09.172Z,18.90
2023-04-29T13:25:35.952Z,18.80
2023-04-29T13:28:02.878Z,18.90
2023-04-29T13:30:29.624Z,18.80
2023-04-29T13:33:01.271Z,18.80
2023-04-29T13:35:36.045Z,18.90
2023-04-29T13:38:02.819Z,18.80
2023-04-29T13:40:29.633Z,18.80
2023-04-29T13:43:04.326Z,18.80
2023-04-29T13:45:38.795Z,18.80
2023-04-29T13:48:16.966Z,18.70
2023-04-29T13:58:56.054Z,18.70
2023-04-29T14:03:35.650Z,18.60
2023-04-29T14:06:02.890Z,18.50
2023-04-29T14:08:29.537Z,18.60
2023-04-29T14:10:56.857Z,18.50
2023-04-29T14:13:23.506Z,18.50
2023-04-29T14:15:50.457Z,18.50
2023-04-29T14:18:17.136Z,18.40
2023-04-29T14:20:43.769Z,18.30
2023-04-29T14:23:10.352Z,18.20
2023-04-29T14:25:36.972Z,18.20
2023-04-29T14:28:04.094Z,18.10
2023-04-29T14:30:30.711Z,18.10
2023-04-29T14:32:57.643Z,18.10
2023-04-29T14:35:24.374Z,18.10
2023-04-29T14:37:51.438Z,18.10
2023-04-29T14:40:18.060Z,18.10
2023-04-29T14:42:44.638Z,18.10
2023-04-29T14:45:12.202Z,18.10
2023-04-29T14:47:38.871Z,18.20
2023-04-29T14:50:06.263Z,18.10
2023-04-29T14:52:32.898Z,18.10
2023-04-29T14:54:59.521Z,18.10
2023-04-29T14:57:26.329Z,18.00
2023-04-29T14:59:52.993Z,17.90
2023-04-29T15:02:19.613Z,17.90
2023-04-29T15:04:46.360Z,17.70
2023-04-29T15:07:13.755Z,17.70
2023-04-29T15:09:40.566Z,17.60
2023-04-29T15:12:07.433Z,17.60
2023-04-29T15:14:34.463Z,17.50
2023-04-29T15:17:01.482Z,17.50
2023-04-29T15:19:28.164Z,17.50
2023-04-29T15:21:54.760Z,17.60
2023-04-29T15:24:21.383Z,17.50
2023-04-29T15:26:48.249Z,17.50
2023-04-29T15:29:14.914Z,17.40
2023-04-29T15:31:41.859Z,17.40
2023-04-29T15:34:08.470Z,17.40
2023-04-29T15:36:35.116Z,17.40
2023-04-29T15:39:01.688Z,17.40
2023-04-29T15:41:28.323Z,17.30
2023-04-29T15:43:57.170Z,17.20
2023-04-29T15:46:23.998Z,17.20
2023-04-29T15:48:50.774Z,17.20
2023-04-29T15:51:17.818Z,17.20
2023-04-29T15:53:44.641Z,17.00
2023-04-29T15:56:11.416Z,16.90
2023-04-29T15:58:38.054Z,16.90
2023-04-29T16:01:04.917Z,16.90
2023-04-29T16:03:31.675Z,16.80
2023-04-29T16:05:58.443Z,16.80
2023-04-29T16:08:25.179Z,16.70
2023-04-29T16:10:52.086Z,16.60
2023-04-29T16:13:18.724Z,16.60
2023-04-29T16:15:45.564Z,16.50
2023-04-29T16:18:13.911Z,16.60
2023-04-29T16:20:40.560Z,16.60
2023-04-29T16:23:07.289Z,16.60
2023-04-29T16:25:33.899Z,16.50
2023-04-29T16:28:00.622Z,16.40
2023-04-29T16:30:27.855Z,16.30
2023-04-29T16:32:54.892Z,16.30
2023-04-29T16:35:26.354Z,16.30
2023-04-29T16:37:55.834Z,16.30
2023-04-29T16:40:24.023Z,16.30
2023-04-29T16:42:51.187Z,16.20
2023-04-29T16:45:18.346Z,16.20
2023-04-29T16:47:45.353Z,16.20
2023-04-29T16:50:12.272Z,16.10
2023-04-29T16:52:38.872Z,16.10
2023-04-29T16:55:05.930Z,16.00
2023-04-29T16:57:33.486Z,16.00
2023-04-29T17:00:00.254Z,16.00
2023-04-29T17:02:27.722Z,15.90
2023-04-29T17:04:54.465Z,15.90
2023-04-29T17:07:21.295Z,15.90
2023-04-29T17:09:48.025Z,15.90
2023-04-29T17:12:14.725Z,15.80
2023-04-29T17:14:41.326Z,15.70
2023-04-29T17:17:07.964Z,15.70
2023-04-29T17:19:34.932Z,15.70
2023-04-29T17:22:01.794Z,15.70
2023-04-29T17:24:28.417Z,15.70
2023-04-29T17:26:56.013Z,15.70
2023-04-29T17:29:22.634Z,15.60
2023-04-29T17:31:54.800Z,15.60
2023-04-29T17:34:25.637Z,15.60
2023-04-29T17:36:53.652Z,15.50
2023-04-29T17:39:20.313Z,15.50
2023-04-29T17:41:46.975Z,15.50
2023-04-29T17:44:13.610Z,15.40
2023-04-29T17:46:40.581Z,15.30
2023-04-29T17:49:07.207Z,15.30
2023-04-29T17:51:33.960Z,15.30
2023-04-29T17:54:06.895Z,15.20
2023-04-29T17:56:34.975Z,15.20
2023-04-29T17:59:02.568Z,15.10
2023-04-29T18:01:29.204Z,15.20
2023-04-29T18:03:55.958Z,15.10
2023-04-29T18:06:22.656Z,15.10
2023-04-29T18:08:49.321Z,15.00
2023-04-29T18:11:16.183Z,15.00
2023-04-29T18:13:42.793Z,14.90
2023-04-29T18:16:09.564Z,14.90
2023-04-29T18:18:37.314Z,14.80
2023-04-29T18:21:04.405Z,14.70
2023-04-29T18:23:31.252Z,14.70
2023-04-29T18:25:57.846Z,14.70
2023-04-29T18:28:25.595Z,14.70
2023-04-29T18:30:52.818Z,14.60
2023-04-29T18:33:19.602Z,14.60
2023-04-29T18:35:46.335Z,14.50
2023-04-29T18:38:16.973Z,14.40
2023-04-29T18:40:44.233Z,14.30
2023-04-29T18:43:11.880Z,14.20
2023-04-29T18:45:38.796Z,14.20
2023-04-29T18:48:06.919Z,14.10
2023-04-29T18:50:33.907Z,14.00
2023-04-29T18:53:00.715Z,14.00
2023-04-29T18:55:27.431Z,13.90
2023-04-29T18:57:54.580Z,13.90
2023-04-29T19:00:21.748Z,13.80
2023-04-29T19:02:48.635Z,13.70
2023-04-29T19:05:15.910Z,13.70
2023-04-29T19:07:43.114Z,13.70
2023-04-29T19:10:09.987Z,13.70
2023-04-29T19:12:36.650Z,13.60
2023-04-29T19:15:03.553Z,13.50
2023-04-29T19:17:30.458Z,13.50
2023-04-29T19:19:57.124Z,13.50
2023-04-29T19:22:23.775Z,13.50
2023-04-29T19:24:50.501Z,13.50
2023-04-29T19:27:17.226Z,13.50
2023-04-29T19:29:43.829Z,13.40
2023-04-29T19:32:10.516Z,13.30
2023-04-29T19:34:37.271Z,13.30
2023-04-29T19:37:04.217Z,13.30
2023-04-29T19:39:30.870Z,13.30
2023-04-29T19:41:58.181Z,13.30
2023-04-29T19:44:25.012Z,13.30
2023-04-29T19:46:53.353Z,13.20
2023-04-29T19:49:20.314Z,13.20
2023-04-29T19:51:47.299Z,13.20
2023-04-29T19:54:13.992Z,13.10
2023-04-29T19:56:40.654Z,13.10
2023-04-29T19:59:07.263Z,13.10
2023-04-29T20:01:34.052Z,13.10
2023-04-29T20:04:00.742Z,13.10
2023-04-29T20:06:28.282Z,13.00
2023-04-29T20:08:54.944Z,12.90
2023-04-29T20:11:21.857Z,12.90
2023-04-29T20:13:48.498Z,12.90
2023-04-29T20:16:15.365Z,12.90
2023-04-29T20:18:42.139Z,12.90
2023-04-29T20:21:08.721Z,12.90
2023-04-29T20:23:35.323Z,12.80
2023-04-29T20:26:03.612Z,12.90
2023-04-29T20:28:30.325Z,12.80
2023-04-29T20:30:56.973Z,12.80
2023-04-29T20:33:23.648Z,12.80
2023-04-29T20:35:51.153Z,12.80
2023-04-29T20:38:17.834Z,12.80
2023-04-29T20:40:44.457Z,12.70
2023-04-29T20:43:11.959Z,12.70
2023-04-29T20:45:38.599Z,12.70
2023-04-29T20:48:05.911Z,12.70
2023-04-29T20:50:32.517Z,12.60
2023-04-29T20:52:59.200Z,12.60
2023-04-29T20:55:25.895Z,12.60
2023-04-29T20:57:52.522Z,12.60
2023-04-29T21:00:19.110Z,12.60
2023-04-29T21:02:46.076Z,12.60
2023-04-29T21:05:12.787Z,12.60
2023-04-29T21:07:39.401Z,12.50
2023-04-29T21:10:06.642Z,12.50
2023-04-29T21:12:33.259Z,12.50
2023-04-29T21:14:59.879Z,12.60
2023-04-29T21:17:26.671Z,12.60
2023-04-29T21:19:53.542Z,12.60
2023-04-29T21:22:20.431Z,12.70
2023-04-29T21:24:47.051Z,12.70
2023-04-29T21:27:13.771Z,12.70
2023-04-29T21:29:41.019Z,12.80
2023-04-29T21:32:08.455Z,12.80
2023-04-29T21:34:35.741Z,12.90
2023-04-29T21:37:02.454Z,12.90
2023-04-29T21:39:31.360Z,13.00
2023-04-29T21:42:00.062Z,13.00
2023-04-29T21:44:26.870Z,13.10
2023-04-29T21:46:53.725Z,13.10
2023-04-29T21:49:21.016Z,13.10
2023-04-29T21:51:47.992Z,13.00
2023-04-29T21:54:14.609Z,13.00
2023-04-29T21:56:41.260Z,13.00
2023-04-29T21:59:07.894Z,13.00
2023-04-29T22:01:48.274Z,12.90
2023-04-29T22:04:17.864Z,12.90
2023-04-29T22:06:44.720Z,12.90
2023-04-29T22:09:11.465Z,12.90
2023-04-29T22:11:38.490Z,12.90
2023-04-29T22:14:05.509Z,12.90
2023-04-29T22:16:33.700Z,12.90
2023-04-29T22:19:00.539Z,12.90
2023-04-29T22:21:28.213Z,12.90
2023-04-29T22:23:55.721Z,12.90
2023-04-29T22:26:25.307Z,12.80
2023-04-29T22:28:52.545Z,12.80
2023-04-29T22:31:19.230Z,12.80
2023-04-29T22:33:45.987Z,12.80
2023-04-29T22:36:12.617Z,12.80
2023-04-29T22:38:39.251Z,12.80
2023-04-29T22:41:07.144Z,12.70
2023-04-29T22:43:33.739Z,12.80
2023-04-29T22:46:00.965Z,12.80
2023-04-29T22:48:28.585Z,12.90
2023-04-29T22:50:56.989Z,12.90
2023-04-29T22:53:23.632Z,12.90
2023-04-29T22:55:54.681Z,13.00
2023-04-29T22:58:22.341Z,13.00
2023-04-29T23:00:57.377Z,13.10
2023-04-29T23:03:24.888Z,13.10
2023-04-29T23:05:51.902Z,13.10
2023-04-29T23:08:18.522Z,13.00
2023-04-29T23:10:51.846Z,13.00
2023-04-29T23:13:18.950Z,13.00
2023-04-29T23:15:45.920Z,13.00
2023-04-29T23:18:12.701Z,12.90
2023-04-29T23:20:39.492Z,12.90
2023-04-29T23:23:06.189Z,12.90
2023-04-29T23:25:32.795Z,12.90
2023-04-29T23:27:59.417Z,13.00
2023-04-29T23:30:26.164Z,13.00
2023-04-29T23:32:52.800Z,13.00
2023-04-29T23:35:19.459Z,13.10
2023-04-29T23:37:46.058Z,13.10
2023-04-29T23:40:12.753Z,13.10
2023-04-29T23:42:39.367Z,13.10
2023-04-29T23:45:06.669Z,13.20
2023-04-29T23:47:33.381Z,13.10
2023-04-29T23:50:00.022Z,13.10
2023-04-29T23:52:26.729Z,13.10
2023-04-29T23:54:53.384Z,13.10
2023-04-29T23:57:19.961Z,13.10
2023-04-29T23:59:46.612Z,13.10
